EZY192 VNKT-VQPR
Flight info
| Callsign | EZY192 |
|---|---|
| Flight time | 0h 43m |
| Altitude | 39000 |
| Route | IGRIS1C KIMTI G348 SUBSU DCT TAKTI DCT PRO |
| Aircraft | A20N/M-SDE2E3FGHIRWXY/LB1 |
Departure
| Time | 2026-04-28 21:28 |
|---|---|
| Airport | Tribhuvan International Airport (VNKT) |
Arrival
| Time | 2026-04-28 22:12 |
|---|---|
| Airport | Paro International Airport (VQPR) |
| Time | Latitude | Longitude | Altitude | Speed | Heading |
|---|---|---|---|---|---|
| 2026-04-28 21:07 | 27.70723 | 85.35971 | 4397 ft | 0 kts | 122° |
| 2026-04-28 21:20 | 27.70714 | 85.35984 | 4397 ft | 5 kts | 131° |
| 2026-04-28 21:21 | 27.70664 | 85.36015 | 4397 ft | 13 kts | 158° |
| 2026-04-28 21:21 | 27.70557 | 85.36049 | 4397 ft | 20 kts | 162° |
| 2026-04-28 21:21 | 27.70499 | 85.36070 | 4397 ft | 1 kts | 172° |
| 2026-04-28 21:21 | 27.70484 | 85.36061 | 4397 ft | 6 kts | 216° |
| 2026-04-28 21:22 | 27.70443 | 85.36014 | 4397 ft | 11 kts | 192° |
| 2026-04-28 21:22 | 27.70357 | 85.36046 | 4397 ft | 17 kts | 163° |
| 2026-04-28 21:22 | 27.70228 | 85.36054 | 4398 ft | 21 kts | 200° |
| 2026-04-28 21:22 | 27.70134 | 85.36011 | 4397 ft | 23 kts | 202° |
| 2026-04-28 21:23 | 27.69929 | 85.35919 | 4397 ft | 25 kts | 202° |
| 2026-04-28 21:23 | 27.69765 | 85.35845 | 4397 ft | 26 kts | 202° |
| 2026-04-28 21:23 | 27.69596 | 85.35765 | 4398 ft | 26 kts | 202° |
| 2026-04-28 21:23 | 27.69431 | 85.35691 | 4395 ft | 18 kts | 202° |
| 2026-04-28 21:24 | 27.69306 | 85.35635 | 4393 ft | 21 kts | 201° |
| 2026-04-28 21:24 | 27.69172 | 85.35575 | 4389 ft | 14 kts | 202° |
| 2026-04-28 21:24 | 27.69106 | 85.35555 | 4388 ft | 0 kts | 169° |
| 2026-04-28 21:25 | 27.69103 | 85.35555 | 4388 ft | 2 kts | 169° |
| 2026-04-28 21:25 | 27.69077 | 85.35578 | 4389 ft | 8 kts | 130° |
| 2026-04-28 21:25 | 27.69012 | 85.35615 | 4391 ft | 14 kts | 193° |
| 2026-04-28 21:26 | 27.68896 | 85.35566 | 4391 ft | 21 kts | 202° |
| 2026-04-28 21:26 | 27.68734 | 85.35493 | 4386 ft | 29 kts | 201° |
| 2026-04-28 21:26 | 27.68547 | 85.35408 | 4395 ft | 29 kts | 202° |
| 2026-04-28 21:26 | 27.68443 | 85.35320 | 4396 ft | 16 kts | 211° |
| 2026-04-28 21:27 | 27.68419 | 85.35347 | 4397 ft | 5 kts | 37° |
| 2026-04-28 21:27 | 27.68457 | 85.35367 | 4396 ft | 0 kts | 21° |
| 2026-04-28 21:28 | 27.68545 | 85.35407 | 4395 ft | 45 kts | 22° |
| 2026-04-28 21:28 | 27.69062 | 85.35643 | 4391 ft | 113 kts | 22° |
| 2026-04-28 21:28 | 27.70019 | 85.36080 | 4485 ft | 172 kts | 22° |
| 2026-04-28 21:28 | 27.71121 | 85.36585 | 5397 ft | 174 kts | 22° |
| 2026-04-28 21:29 | 27.72256 | 85.37125 | 6121 ft | 181 kts | 28° |
| 2026-04-28 21:29 | 27.73285 | 85.38055 | 6651 ft | 201 kts | 51° |
| 2026-04-28 21:29 | 27.73955 | 85.39509 | 7106 ft | 220 kts | 75° |
| 2026-04-28 21:29 | 27.73986 | 85.41299 | 7546 ft | 241 kts | 105° |
| 2026-04-28 21:30 | 27.73139 | 85.43026 | 7902 ft | 266 kts | 135° |
| 2026-04-28 21:30 | 27.71604 | 85.44337 | 8473 ft | 286 kts | 148° |
| 2026-04-28 21:30 | 27.69860 | 85.45462 | 9433 ft | 291 kts | 152° |
| 2026-04-28 21:30 | 27.68036 | 85.46579 | 10154 ft | 304 kts | 152° |
| 2026-04-28 21:31 | 27.66210 | 85.47944 | 10603 ft | 328 kts | 140° |
| 2026-04-28 21:31 | 27.64676 | 85.49966 | 10947 ft | 353 kts | 123° |
| 2026-04-28 21:31 | 27.63548 | 85.52478 | 11549 ft | 364 kts | 112° |
| 2026-04-28 21:31 | 27.62681 | 85.55189 | 12319 ft | 371 kts | 108° |
| 2026-04-28 21:32 | 27.61921 | 85.57997 | 13111 ft | 377 kts | 106° |
| 2026-04-28 21:32 | 27.61187 | 85.60852 | 13863 ft | 384 kts | 106° |
| 2026-04-28 21:32 | 27.60436 | 85.63777 | 14535 ft | 390 kts | 106° |
| 2026-04-28 21:32 | 27.59667 | 85.66723 | 15269 ft | 393 kts | 107° |
| 2026-04-28 21:33 | 27.58805 | 85.69664 | 15950 ft | 399 kts | 112° |
| 2026-04-28 21:33 | 27.57617 | 85.72516 | 16636 ft | 403 kts | 117° |
| 2026-04-28 21:33 | 27.56357 | 85.75357 | 17339 ft | 408 kts | 117° |
| 2026-04-28 21:33 | 27.55086 | 85.78231 | 17990 ft | 412 kts | 117° |
| 2026-04-28 21:34 | 27.53794 | 85.81144 | 18576 ft | 417 kts | 117° |
| 2026-04-28 21:34 | 27.52519 | 85.84097 | 19154 ft | 420 kts | 114° |
| 2026-04-28 21:34 | 27.51580 | 85.87220 | 19796 ft | 423 kts | 104° |
| 2026-04-28 21:34 | 27.51067 | 85.90497 | 20401 ft | 427 kts | 95° |
| 2026-04-28 21:35 | 27.50927 | 85.93862 | 20984 ft | 431 kts | 91° |
| 2026-04-28 21:35 | 27.50814 | 85.97240 | 21584 ft | 434 kts | 92° |
| 2026-04-28 21:35 | 27.50729 | 85.99495 | 21984 ft | 436 kts | 92° |
| 2026-04-28 21:35 | 27.50551 | 86.04095 | 22735 ft | 442 kts | 92° |
| 2026-04-28 21:36 | 27.50416 | 86.07568 | 23323 ft | 445 kts | 92° |
| 2026-04-28 21:36 | 27.50327 | 86.09874 | 23668 ft | 448 kts | 92° |
| 2026-04-28 21:36 | 27.50193 | 86.13395 | 24176 ft | 450 kts | 92° |
| 2026-04-28 21:36 | 27.50057 | 86.16926 | 24684 ft | 453 kts | 93° |
| 2026-04-28 21:37 | 27.49919 | 86.20477 | 25199 ft | 455 kts | 92° |
| 2026-04-28 21:37 | 27.49780 | 86.24052 | 25704 ft | 458 kts | 93° |
| 2026-04-28 21:37 | 27.49485 | 86.27628 | 26184 ft | 460 kts | 100° |
| 2026-04-28 21:37 | 27.48844 | 86.31160 | 26633 ft | 463 kts | 103° |
| 2026-04-28 21:38 | 27.48154 | 86.34716 | 27118 ft | 466 kts | 103° |
| 2026-04-28 21:38 | 27.47468 | 86.38288 | 27585 ft | 468 kts | 103° |
| 2026-04-28 21:38 | 27.46779 | 86.41883 | 28004 ft | 471 kts | 103° |
| 2026-04-28 21:38 | 27.46085 | 86.45500 | 28437 ft | 474 kts | 104° |
| 2026-04-28 21:39 | 27.45387 | 86.49133 | 28847 ft | 476 kts | 104° |
| 2026-04-28 21:39 | 27.44683 | 86.52790 | 29289 ft | 478 kts | 104° |
| 2026-04-28 21:39 | 27.43974 | 86.56459 | 29716 ft | 481 kts | 104° |
| 2026-04-28 21:39 | 27.43260 | 86.60150 | 30076 ft | 483 kts | 104° |
| 2026-04-28 21:40 | 27.42545 | 86.63856 | 30442 ft | 485 kts | 104° |
| 2026-04-28 21:40 | 27.41826 | 86.67565 | 30847 ft | 486 kts | 104° |
| 2026-04-28 21:40 | 27.41103 | 86.71290 | 31248 ft | 487 kts | 104° |
| 2026-04-28 21:40 | 27.40382 | 86.75002 | 31761 ft | 485 kts | 104° |
| 2026-04-28 21:41 | 27.39664 | 86.78696 | 32308 ft | 482 kts | 104° |
| 2026-04-28 21:41 | 27.38948 | 86.82368 | 32858 ft | 479 kts | 104° |
| 2026-04-28 21:41 | 27.38245 | 86.85971 | 33414 ft | 476 kts | 104° |
| 2026-04-28 21:41 | 27.37536 | 86.89597 | 33907 ft | 474 kts | 104° |
| 2026-04-28 21:42 | 27.36828 | 86.93214 | 34363 ft | 472 kts | 104° |
| 2026-04-28 21:42 | 27.36119 | 86.96821 | 34626 ft | 472 kts | 104° |
| 2026-04-28 21:42 | 27.35408 | 87.00441 | 34853 ft | 474 kts | 104° |
| 2026-04-28 21:42 | 27.34698 | 87.04049 | 35229 ft | 472 kts | 104° |
| 2026-04-28 21:43 | 27.33989 | 87.07654 | 35555 ft | 472 kts | 104° |
| 2026-04-28 21:43 | 27.33279 | 87.11252 | 35910 ft | 470 kts | 104° |
| 2026-04-28 21:43 | 27.32553 | 87.14838 | 36245 ft | 469 kts | 107° |
| 2026-04-28 21:43 | 27.31584 | 87.18317 | 36558 ft | 465 kts | 113° |
| 2026-04-28 21:44 | 27.30310 | 87.21653 | 36839 ft | 463 kts | 119° |
| 2026-04-28 21:44 | 27.28750 | 87.24808 | 37140 ft | 461 kts | 124° |
| 2026-04-28 21:44 | 27.27047 | 87.27863 | 37422 ft | 460 kts | 124° |
| 2026-04-28 21:44 | 27.25365 | 87.30910 | 37707 ft | 460 kts | 124° |
| 2026-04-28 21:45 | 27.23684 | 87.33967 | 37976 ft | 459 kts | 124° |
| 2026-04-28 21:45 | 27.22000 | 87.37025 | 38182 ft | 461 kts | 124° |
| 2026-04-28 21:45 | 27.20314 | 87.40085 | 38424 ft | 461 kts | 124° |
| 2026-04-28 21:45 | 27.18628 | 87.43141 | 38673 ft | 459 kts | 125° |
| 2026-04-28 21:46 | 27.16943 | 87.46189 | 38853 ft | 459 kts | 124° |
| 2026-04-28 21:46 | 27.15253 | 87.49241 | 38891 ft | 460 kts | 124° |
| 2026-04-28 21:46 | 27.11882 | 87.55329 | 38888 ft | 459 kts | 124° |
| 2026-04-28 21:47 | 27.08513 | 87.61407 | 38870 ft | 459 kts | 124° |
| 2026-04-28 21:47 | 27.05141 | 87.67480 | 38869 ft | 459 kts | 124° |
| 2026-04-28 21:48 | 27.01766 | 87.73554 | 38875 ft | 461 kts | 125° |
| 2026-04-28 21:48 | 26.98357 | 87.79675 | 38882 ft | 463 kts | 125° |
| 2026-04-28 21:49 | 26.94979 | 87.85738 | 38851 ft | 460 kts | 125° |
| 2026-04-28 21:49 | 26.91582 | 87.91820 | 38848 ft | 461 kts | 125° |
| 2026-04-28 21:50 | 26.88176 | 87.97907 | 38848 ft | 461 kts | 125° |
| 2026-04-28 21:50 | 26.84769 | 88.03997 | 38805 ft | 459 kts | 125° |
| 2026-04-28 21:51 | 26.81386 | 88.10033 | 38817 ft | 459 kts | 126° |
| 2026-04-28 21:51 | 26.77972 | 88.16114 | 38734 ft | 462 kts | 126° |
| 2026-04-28 21:52 | 26.76263 | 88.19160 | 38303 ft | 462 kts | 126° |
| 2026-04-28 21:52 | 26.74562 | 88.22219 | 37485 ft | 466 kts | 125° |
| 2026-04-28 21:52 | 26.72889 | 88.25365 | 36399 ft | 475 kts | 119° |
| 2026-04-28 21:52 | 26.71687 | 88.28853 | 35390 ft | 485 kts | 106° |
| 2026-04-28 21:53 | 26.71136 | 88.32576 | 34617 ft | 488 kts | 94° |
| 2026-04-28 21:53 | 26.71251 | 88.36364 | 33858 ft | 489 kts | 82° |
| 2026-04-28 21:53 | 26.72029 | 88.40072 | 33027 ft | 489 kts | 70° |
| 2026-04-28 21:53 | 26.73441 | 88.43519 | 32234 ft | 487 kts | 58° |
| 2026-04-28 21:54 | 26.75379 | 88.46615 | 31343 ft | 487 kts | 50° |
| 2026-04-28 21:54 | 26.77486 | 88.49569 | 30696 ft | 484 kts | 50° |
| 2026-04-28 21:54 | 26.79500 | 88.52582 | 30004 ft | 482 kts | 53° |
| 2026-04-28 21:54 | 26.81378 | 88.55663 | 29368 ft | 477 kts | 55° |
| 2026-04-28 21:55 | 26.83157 | 88.58775 | 28715 ft | 472 kts | 56° |
| 2026-04-28 21:55 | 26.84876 | 88.61884 | 28077 ft | 467 kts | 57° |
| 2026-04-28 21:55 | 26.86565 | 88.64979 | 27457 ft | 462 kts | 57° |
| 2026-04-28 21:55 | 26.88226 | 88.68036 | 26839 ft | 458 kts | 57° |
| 2026-04-28 21:56 | 26.89876 | 88.71074 | 26210 ft | 454 kts | 57° |
| 2026-04-28 21:56 | 26.91516 | 88.74092 | 25573 ft | 450 kts | 57° |
| 2026-04-28 21:56 | 26.93137 | 88.77074 | 24938 ft | 447 kts | 57° |
| 2026-04-28 21:56 | 26.94750 | 88.80043 | 24316 ft | 444 kts | 57° |
| 2026-04-28 21:57 | 26.96322 | 88.82957 | 23699 ft | 442 kts | 59° |
| 2026-04-28 21:57 | 26.97640 | 88.86112 | 22999 ft | 441 kts | 69° |
| 2026-04-28 21:57 | 26.98451 | 88.89346 | 22434 ft | 435 kts | 78° |
| 2026-04-28 21:57 | 26.98865 | 88.92725 | 21846 ft | 430 kts | 83° |
| 2026-04-28 21:58 | 26.99209 | 88.96042 | 21244 ft | 426 kts | 83° |
| 2026-04-28 21:58 | 26.99555 | 88.99317 | 20608 ft | 422 kts | 83° |
| 2026-04-28 21:58 | 26.99901 | 89.02570 | 20011 ft | 418 kts | 83° |
| 2026-04-28 21:58 | 27.00242 | 89.05788 | 19424 ft | 414 kts | 83° |
| 2026-04-28 21:59 | 27.00578 | 89.08982 | 18822 ft | 411 kts | 83° |
| 2026-04-28 21:59 | 27.00912 | 89.12160 | 18214 ft | 408 kts | 83° |
| 2026-04-28 21:59 | 27.01240 | 89.15301 | 17564 ft | 404 kts | 83° |
| 2026-04-28 22:00 | 27.01882 | 89.21466 | 16416 ft | 392 kts | 83° |
| 2026-04-28 22:00 | 27.02192 | 89.24453 | 16185 ft | 378 kts | 83° |
| 2026-04-28 22:00 | 27.02487 | 89.27306 | 16010 ft | 357 kts | 83° |
| 2026-04-28 22:00 | 27.02764 | 89.29988 | 15816 ft | 336 kts | 83° |
| 2026-04-28 22:01 | 27.03025 | 89.32516 | 15655 ft | 316 kts | 83° |
| 2026-04-28 22:01 | 27.03267 | 89.34866 | 15502 ft | 298 kts | 83° |
| 2026-04-28 22:01 | 27.03497 | 89.37106 | 15368 ft | 280 kts | 83° |
| 2026-04-28 22:01 | 27.03712 | 89.39205 | 15233 ft | 261 kts | 83° |
| 2026-04-28 22:02 | 27.03912 | 89.41160 | 15104 ft | 243 kts | 83° |
| 2026-04-28 22:02 | 27.04098 | 89.42979 | 14922 ft | 228 kts | 83° |
| 2026-04-28 22:02 | 27.04277 | 89.44729 | 14546 ft | 224 kts | 83° |
| 2026-04-28 22:02 | 27.04454 | 89.46461 | 14105 ft | 223 kts | 83° |
| 2026-04-28 22:03 | 27.04630 | 89.48178 | 13696 ft | 221 kts | 83° |
| 2026-04-28 22:03 | 27.04980 | 89.49818 | 13253 ft | 213 kts | 63° |
| 2026-04-28 22:03 | 27.05967 | 89.51026 | 12807 ft | 210 kts | 30° |
| 2026-04-28 22:03 | 27.07308 | 89.51441 | 12673 ft | 194 kts | 1° |
| 2026-04-28 22:04 | 27.08610 | 89.51377 | 12450 ft | 183 kts | 359° |
| 2026-04-28 22:04 | 27.09880 | 89.51326 | 12093 ft | 182 kts | 360° |
| 2026-04-28 22:04 | 27.11144 | 89.51280 | 11706 ft | 181 kts | 0° |
| 2026-04-28 22:04 | 27.12397 | 89.51234 | 11364 ft | 180 kts | 0° |
| 2026-04-28 22:05 | 27.13641 | 89.51186 | 11005 ft | 179 kts | 360° |
| 2026-04-28 22:05 | 27.14887 | 89.51137 | 10675 ft | 180 kts | 359° |
| 2026-04-28 22:05 | 27.16122 | 89.51086 | 10395 ft | 176 kts | 359° |
| 2026-04-28 22:05 | 27.17347 | 89.51038 | 10182 ft | 176 kts | 359° |
| 2026-04-28 22:06 | 27.18578 | 89.50990 | 9789 ft | 177 kts | 358° |
| 2026-04-28 22:06 | 27.19798 | 89.50940 | 9388 ft | 173 kts | 358° |
| 2026-04-28 22:06 | 27.20941 | 89.50903 | 9218 ft | 151 kts | 2° |
| 2026-04-28 22:06 | 27.21924 | 89.51106 | 9023 ft | 136 kts | 14° |
| 2026-04-28 22:07 | 27.22829 | 89.51393 | 8931 ft | 148 kts | 15° |
| 2026-04-28 22:07 | 27.23930 | 89.51668 | 9026 ft | 172 kts | 12° |
| 2026-04-28 22:07 | 27.25117 | 89.51863 | 8986 ft | 171 kts | 358° |
| 2026-04-28 22:07 | 27.26246 | 89.51432 | 9086 ft | 177 kts | 323° |
| 2026-04-28 22:08 | 27.27226 | 89.50789 | 9785 ft | 153 kts | 350° |
| 2026-04-28 22:08 | 27.28221 | 89.51212 | 9978 ft | 172 kts | 49° |
| 2026-04-28 22:08 | 27.28912 | 89.52347 | 9703 ft | 177 kts | 54° |
| 2026-04-28 22:08 | 27.29784 | 89.53273 | 9561 ft | 173 kts | 28° |
| 2026-04-28 22:09 | 27.30946 | 89.53463 | 9456 ft | 177 kts | 346° |
| 2026-04-28 22:09 | 27.31990 | 89.52724 | 9014 ft | 177 kts | 319° |
| 2026-04-28 22:09 | 27.32699 | 89.51686 | 8634 ft | 165 kts | 286° |
| 2026-04-28 22:09 | 27.32660 | 89.50443 | 8500 ft | 163 kts | 254° |
| 2026-04-28 22:10 | 27.32527 | 89.49172 | 8436 ft | 161 kts | 277° |
| 2026-04-28 22:10 | 27.32954 | 89.48029 | 8571 ft | 162 kts | 314° |
| 2026-04-28 22:10 | 27.33924 | 89.47400 | 8409 ft | 165 kts | 337° |
| 2026-04-28 22:10 | 27.34942 | 89.46872 | 8239 ft | 159 kts | 335° |
| 2026-04-28 22:11 | 27.35939 | 89.46316 | 8224 ft | 161 kts | 332° |
| 2026-04-28 22:11 | 27.36910 | 89.45682 | 8154 ft | 162 kts | 322° |
| 2026-04-28 22:11 | 27.37613 | 89.44709 | 8057 ft | 161 kts | 300° |
| 2026-04-28 22:11 | 27.38325 | 89.43728 | 7595 ft | 164 kts | 330° |
| 2026-04-28 22:12 | 27.39293 | 89.43131 | 7354 ft | 156 kts | 330° |
| 2026-04-28 22:12 | 27.40223 | 89.42534 | 7281 ft | 144 kts | 330° |
| 2026-04-28 22:12 | 27.40774 | 89.42182 | 7285 ft | 27 kts | 327° |
| 2026-04-28 22:12 | 27.40834 | 89.42134 | 7284 ft | 1 kts | 292° |
| 2026-04-28 22:13 | 27.40822 | 89.42091 | 7281 ft | 11 kts | 245° |
| 2026-04-28 22:13 | 27.40775 | 89.42075 | 7279 ft | 6 kts | 143° |
| 2026-04-28 22:13 | 27.40726 | 89.42108 | 7279 ft | 0 kts | 167° |
| 2026-04-28 22:13 | 27.40719 | 89.42100 | 7279 ft | 3 kts | 229° |
| 2026-04-28 22:14 | 27.40700 | 89.42065 | 7278 ft | 0 kts | 238° |
| 2026-04-28 22:14 | 27.40693 | 89.42051 | 7278 ft | 0 kts | 240° |